createdAt,value
2019-04-26T03:03:17.235Z,1.50
2019-04-26T03:05:45.803Z,1.60
2019-04-26T03:08:16.364Z,1.60
2019-04-26T03:10:53.935Z,2.00
2019-04-26T03:13:40.214Z,1.50
2019-04-26T03:16:29.073Z,2.37
2019-04-26T03:19:10.831Z,1.87
2019-04-26T03:21:58.855Z,1.80
2019-04-26T03:24:35.069Z,1.80
2019-04-26T03:27:43.500Z,1.77
2019-04-26T03:30:35.333Z,2.03
2019-04-26T03:33:12.169Z,1.37
2019-04-26T03:36:19.055Z,1.33
2019-04-26T03:39:36.264Z,1.70
2019-04-26T03:42:25.583Z,1.47
2019-04-26T03:45:15.387Z,1.60
2019-04-26T03:47:52.227Z,1.40
2019-04-26T03:50:29.941Z,1.67
2019-04-26T03:53:27.486Z,1.37
2019-04-26T03:57:04.588Z,1.30
2019-04-26T04:00:09.731Z,1.50
2019-04-26T04:02:50.658Z,1.47
2019-04-26T04:05:32.091Z,1.80
2019-04-26T04:08:02.031Z,1.60
2019-04-26T04:10:37.679Z,1.00
2019-04-26T04:13:18.480Z,1.57
2019-04-26T04:15:48.806Z,1.50
2019-04-26T04:18:22.434Z,1.77
2019-04-26T04:21:24.273Z,1.60
2019-04-26T04:24:08.230Z,1.57
2019-04-26T04:27:10.272Z,1.10
2019-04-26T04:29:55.804Z,1.50
2019-04-26T04:33:05.771Z,1.83
2019-04-26T04:35:36.358Z,1.33
2019-04-26T04:38:15.116Z,1.40
2019-04-26T04:41:11.229Z,1.50
2019-04-26T04:43:48.782Z,1.47
2019-04-26T04:47:22.762Z,1.20
2019-04-26T04:50:02.111Z,1.40
2019-04-26T04:52:46.409Z,1.50
2019-04-26T04:55:21.870Z,1.30
2019-04-26T04:58:05.532Z,1.50
2019-04-26T05:01:14.694Z,1.60
2019-04-26T05:04:12.990Z,1.50
2019-04-26T05:07:16.590Z,1.50
2019-04-26T05:09:55.453Z,1.30
2019-04-26T05:12:33.439Z,1.33
2019-04-26T05:15:48.472Z,1.77
2019-04-26T05:18:27.858Z,1.50
2019-04-26T05:21:23.290Z,1.53
2019-04-26T05:24:34.659Z,1.87
2019-04-26T05:27:46.805Z,1.47
2019-04-26T05:31:10.114Z,1.40
2019-04-26T05:33:54.585Z,1.70
2019-04-26T05:36:51.013Z,1.60
2019-04-26T05:39:33.698Z,1.70
2019-04-26T05:42:48.410Z,1.60
2019-04-26T05:46:11.764Z,1.43
2019-04-26T05:48:55.704Z,2.47
2019-04-26T05:52:04.290Z,1.37
2019-04-26T05:55:11.685Z,1.93
2019-04-26T05:57:56.340Z,1.90
2019-04-26T06:00:50.436Z,1.60
2019-04-26T06:03:59.038Z,1.60
2019-04-26T06:06:32.814Z,1.87
2019-04-26T06:09:30.214Z,2.00
2019-04-26T06:12:18.116Z,1.70
2019-04-26T06:15:24.690Z,1.70
2019-04-26T06:18:21.618Z,1.90
2019-04-26T06:21:16.322Z,1.77
2019-04-26T06:23:56.152Z,1.70
2019-04-26T06:27:13.785Z,1.70
2019-04-26T06:29:46.047Z,1.77
2019-04-26T06:32:29.000Z,2.23
2019-04-26T06:35:14.594Z,2.07
2019-04-26T06:37:55.362Z,2.27
2019-04-26T06:40:41.834Z,2.40
2019-04-26T06:43:17.347Z,2.63
2019-04-26T06:46:08.947Z,3.10
2019-04-26T06:49:14.371Z,2.90
2019-04-26T06:51:47.886Z,3.37
2019-04-26T06:54:22.620Z,3.10
2019-04-26T06:57:46.450Z,3.10
2019-04-26T07:00:25.487Z,3.10
2019-04-26T07:03:27.986Z,2.50
2019-04-26T07:05:58.934Z,2.70
2019-04-26T07:08:57.058Z,2.93
2019-04-26T07:12:13.954Z,2.70
2019-04-26T07:15:28.302Z,2.50
2019-04-26T07:18:08.513Z,2.10
2019-04-26T07:20:47.602Z,2.30
2019-04-26T07:24:16.546Z,2.57
2019-04-26T07:27:35.500Z,2.03
2019-04-26T07:30:22.763Z,2.40
2019-04-26T07:33:51.677Z,2.43
2019-04-26T07:36:36.999Z,2.23
2019-04-26T07:39:53.126Z,2.30
2019-04-26T07:42:51.890Z,2.60
2019-04-26T07:45:44.051Z,1.93
2019-04-26T07:48:41.406Z,2.30
2019-04-26T07:51:57.089Z,1.77
2019-04-26T07:55:00.923Z,1.80
2019-04-26T07:58:20.070Z,1.70
2019-04-26T08:00:56.423Z,2.00
2019-04-26T08:03:43.289Z,1.70
2019-04-26T08:06:17.023Z,1.70
2019-04-26T08:08:49.203Z,1.87
2019-04-26T08:11:22.792Z,1.93
2019-04-26T08:14:01.628Z,1.70
2019-04-26T08:16:48.003Z,1.70
2019-04-26T08:19:18.399Z,1.57
2019-04-26T08:21:49.089Z,1.97
2019-04-26T08:24:22.392Z,1.53
2019-04-26T08:27:23.242Z,1.40
2019-04-26T08:29:51.646Z,1.63
2019-04-26T08:32:22.311Z,1.87
2019-04-26T08:34:56.686Z,1.40
2019-04-26T08:37:36.460Z,1.10
2019-04-26T08:40:04.466Z,1.70
2019-04-26T08:42:39.230Z,1.53
2019-04-26T08:45:22.847Z,1.50
2019-04-26T08:48:10.415Z,1.90
2019-04-26T08:50:49.518Z,1.60
2019-04-26T08:53:18.166Z,1.60
2019-04-26T08:55:47.014Z,1.37
2019-04-26T08:58:15.579Z,1.67
2019-04-26T09:01:06.386Z,1.73
2019-04-26T09:03:41.287Z,1.50
2019-04-26T09:06:19.410Z,1.27
2019-04-26T09:08:48.071Z,1.43
2019-04-26T09:11:25.644Z,2.27
2019-04-26T09:13:49.990Z,2.33
2019-04-26T09:16:20.463Z,1.77
2019-04-26T09:18:54.164Z,1.97
2019-04-26T09:21:28.983Z,1.90
2019-04-26T09:24:15.791Z,1.90
2019-04-26T09:26:48.513Z,1.87
2019-04-26T09:29:36.331Z,1.83
2019-04-26T09:32:27.582Z,1.60
2019-04-26T09:34:54.486Z,1.60
2019-04-26T09:37:23.051Z,2.10
2019-04-26T09:39:51.643Z,1.90
2019-04-26T09:42:27.216Z,2.33
2019-04-26T09:45:05.411Z,1.87
2019-04-26T09:47:45.470Z,1.83
2019-04-26T09:50:42.047Z,2.07
2019-04-26T09:53:10.631Z,2.30
2019-04-26T09:55:39.246Z,1.83
2019-04-26T09:58:08.729Z,2.40
2019-04-26T10:00:37.550Z,1.90
2019-04-26T10:03:09.431Z,2.00
2019-04-26T10:05:36.794Z,2.33
2019-04-26T10:08:08.270Z,2.03
2019-04-26T10:10:36.418Z,2.00
2019-04-26T10:13:25.410Z,2.10
2019-04-26T10:16:33.530Z,2.30
2019-04-26T10:19:07.949Z,2.03
2019-04-26T10:21:36.516Z,2.10
2019-04-26T10:24:05.085Z,2.07
2019-04-26T10:26:33.679Z,2.10
2019-04-26T10:29:02.578Z,2.37
2019-04-26T10:31:31.791Z,2.13
2019-04-26T10:34:00.383Z,2.47
2019-04-26T10:36:30.273Z,3.63
2019-04-26T10:38:59.738Z,2.53
2019-04-26T10:41:28.442Z,2.70
2019-04-26T10:43:57.114Z,2.40
2019-04-26T10:46:28.319Z,2.30
2019-04-26T10:49:08.193Z,2.20
2019-04-26T10:51:38.732Z,1.93
2019-04-26T10:54:11.687Z,2.30
2019-04-26T10:56:54.835Z,2.13
2019-04-26T10:59:40.065Z,2.60
2019-04-26T11:02:07.591Z,2.60
2019-04-26T11:04:37.295Z,2.07
2019-04-26T11:07:07.134Z,2.20
2019-04-26T11:09:35.706Z,2.00
2019-04-26T11:12:04.807Z,2.60
2019-04-26T11:14:33.455Z,2.60
2019-04-26T11:17:02.162Z,2.67
2019-04-26T11:19:31.900Z,2.77
2019-04-26T11:22:01.047Z,2.43
2019-04-26T11:24:29.615Z,2.20
2019-04-26T11:26:58.186Z,2.57
2019-04-26T11:29:28.755Z,2.20
2019-04-26T11:31:58.439Z,1.80
2019-04-26T11:34:27.639Z,1.80
2019-04-26T11:36:56.391Z,1.93
2019-04-26T11:39:28.022Z,2.27
2019-04-26T11:41:55.259Z,2.10
2019-04-26T11:44:27.548Z,1.97
2019-04-26T11:46:54.488Z,2.27
2019-04-26T11:49:23.082Z,1.53
2019-04-26T11:51:51.659Z,1.30
2019-04-26T11:54:20.684Z,1.57
2019-04-26T11:56:50.609Z,1.10
2019-04-26T11:59:19.206Z,1.23
2019-04-26T12:01:47.783Z,1.37
2019-04-26T12:04:34.222Z,1.33
2019-04-26T12:07:15.099Z,1.10
2019-04-26T12:09:45.715Z,1.07
2019-04-26T12:12:14.382Z,0.90
2019-04-26T12:14:43.047Z,1.10
2019-04-26T12:17:11.609Z,0.93
2019-04-26T12:19:40.206Z,1.00
2019-04-26T12:22:09.955Z,1.10
2019-04-26T12:24:38.822Z,0.80
2019-04-26T12:27:10.108Z,0.90
2019-04-26T12:29:37.727Z,1.00
2019-04-26T12:32:06.315Z,0.60
2019-04-26T12:34:34.881Z,0.67
2019-04-26T12:37:03.453Z,0.73
2019-04-26T12:39:36.723Z,1.00
2019-04-26T12:42:03.506Z,0.57
2019-04-26T12:45:03.255Z,0.70
2019-04-26T12:47:57.379Z,0.70
2019-04-26T12:50:29.552Z,0.60
2019-04-26T12:52:58.002Z,0.60
2019-04-26T12:55:26.572Z,0.73
2019-04-26T12:57:55.493Z,0.70
2019-04-26T13:00:33.171Z,0.70
2019-04-26T13:03:02.639Z,0.90
2019-04-26T13:05:31.270Z,1.10
2019-04-26T13:07:59.863Z,0.90
2019-04-26T13:10:50.291Z,0.90
2019-04-26T13:13:28.678Z,0.70
2019-04-26T13:16:07.291Z,0.67
2019-04-26T13:18:35.867Z,0.70
2019-04-26T13:21:04.590Z,0.80
2019-04-26T13:23:33.182Z,0.83
2019-04-26T13:26:01.814Z,1.53
2019-04-26T13:28:30.500Z,0.93
2019-04-26T13:31:02.008Z,0.67
2019-04-26T13:33:29.378Z,0.93
2019-04-26T13:36:05.160Z,0.90
2019-04-26T13:38:28.273Z,0.80
2019-04-26T13:40:59.528Z,0.70
2019-04-26T13:43:28.741Z,1.10
2019-04-26T13:46:29.090Z,0.80
2019-04-26T13:49:22.742Z,0.80
2019-04-26T13:51:51.369Z,0.60
2019-04-26T13:54:21.118Z,1.07
2019-04-26T13:56:50.214Z,1.00
2019-04-26T13:59:18.816Z,0.93
2019-04-26T14:01:47.384Z,1.03
2019-04-26T14:04:15.981Z,1.10
2019-04-26T14:06:44.610Z,1.07
2019-04-26T14:09:14.575Z,0.90
2019-04-26T14:11:43.301Z,1.53
2019-04-26T14:14:11.898Z,1.20
2019-04-26T14:16:41.110Z,1.00
2019-04-26T14:19:14.434Z,1.30
2019-04-26T14:21:40.006Z,1.10
2019-04-26T14:24:28.622Z,1.20
2019-04-26T14:27:03.402Z,0.97
2019-04-26T14:29:32.599Z,0.90
2019-04-26T14:32:02.402Z,0.90
2019-04-26T14:34:30.982Z,1.10
2019-04-26T14:37:06.219Z,1.03
2019-04-26T14:39:43.067Z,1.10
2019-04-26T14:42:01.449Z,1.10
2019-04-26T14:44:31.217Z,1.00
2019-04-26T14:47:13.105Z,1.10
2019-04-26T14:49:38.994Z,1.10
2019-04-26T14:52:01.266Z,0.97
2019-04-26T14:54:29.921Z,0.90
2019-04-26T14:57:07.385Z,0.97
2019-04-26T14:59:49.179Z,0.63
2019-04-26T15:02:35.771Z,0.60
2019-04-26T15:05:22.224Z,0.93
2019-04-26T15:07:53.597Z,0.83
2019-04-26T15:10:23.350Z,0.70
2019-04-26T15:12:58.641Z,0.83
2019-04-26T15:15:22.322Z,0.60
2019-04-26T15:17:53.618Z,0.90
2019-04-26T15:20:24.212Z,0.80
2019-04-26T15:22:52.674Z,0.60
2019-04-26T15:25:21.577Z,0.83
2019-04-26T15:27:52.106Z,0.60
2019-04-26T15:30:22.048Z,0.50
2019-04-26T15:32:52.940Z,0.70
2019-04-26T15:35:23.095Z,0.70
2019-04-26T15:37:53.402Z,0.50
2019-04-26T15:40:40.351Z,0.40
2019-04-26T15:43:23.829Z,0.73
2019-04-26T15:46:04.067Z,0.90
2019-04-26T15:48:54.655Z,0.60
2019-04-26T15:51:24.452Z,0.80
2019-04-26T15:53:53.302Z,0.70
2019-04-26T15:56:22.280Z,0.53
2019-04-26T15:58:52.292Z,0.87
2019-04-26T16:01:21.066Z,0.63
2019-04-26T16:03:49.630Z,0.80
2019-04-26T16:06:18.195Z,1.10
2019-04-26T16:08:46.811Z,1.07
2019-04-26T16:11:15.450Z,0.90
2019-04-26T16:13:46.652Z,1.00
2019-04-26T16:16:16.484Z,1.10
2019-04-26T16:18:44.671Z,0.70
2019-04-26T16:21:17.799Z,1.00
2019-04-26T16:23:51.143Z,1.37
2019-04-26T16:26:15.380Z,1.83
2019-04-26T16:29:03.436Z,1.10
2019-04-26T16:31:46.084Z,1.37
2019-04-26T16:34:16.954Z,1.30
2019-04-26T16:36:45.866Z,1.60
2019-04-26T16:39:14.434Z,1.50
2019-04-26T16:41:43.144Z,1.40
2019-04-26T16:44:13.072Z,1.40
2019-04-26T16:46:43.901Z,1.37
2019-04-26T16:49:14.111Z,1.50
2019-04-26T16:51:43.662Z,1.27
2019-04-26T16:54:20.909Z,1.30
2019-04-26T16:56:43.864Z,1.53
2019-04-26T16:59:14.376Z,1.50
2019-04-26T17:01:47.176Z,1.73
2019-04-26T17:04:20.064Z,1.50
2019-04-26T17:06:46.390Z,1.20
2019-04-26T17:09:15.178Z,1.30
2019-04-26T17:12:03.578Z,1.60
2019-04-26T17:14:34.151Z,1.60
2019-04-26T17:17:03.139Z,1.33
2019-04-26T17:19:34.255Z,1.23
2019-04-26T17:22:15.947Z,1.43
2019-04-26T17:24:55.870Z,1.53
2019-04-26T17:27:24.446Z,1.43
2019-04-26T17:29:53.034Z,1.40
2019-04-26T17:32:23.256Z,2.03
2019-04-26T17:34:54.573Z,1.60
2019-04-26T17:37:26.445Z,1.43
2019-04-26T17:39:55.348Z,1.57
2019-04-26T17:42:25.134Z,1.50
2019-04-26T17:44:57.554Z,1.90
2019-04-26T17:47:24.263Z,1.60
2019-04-26T17:49:53.104Z,2.37
2019-04-26T17:52:21.674Z,1.63
2019-04-26T17:54:52.073Z,1.50
2019-04-26T17:57:32.114Z,1.30
2019-04-26T17:59:51.609Z,1.67
2019-04-26T18:02:40.788Z,1.70
2019-04-26T18:04:59.022Z,1.63
2019-04-26T18:07:39.547Z,1.83
2019-04-26T18:09:52.581Z,2.00
2019-04-26T18:12:21.334Z,2.10
2019-04-26T18:14:50.864Z,1.80
2019-04-26T18:17:40.054Z,1.40
2019-04-26T18:20:30.546Z,1.67
2019-04-26T18:23:09.944Z,1.77
2019-04-26T18:25:35.968Z,1.50
2019-04-26T18:28:08.733Z,1.33
2019-04-26T18:30:35.575Z,1.33
2019-04-26T18:33:04.158Z,1.40
2019-04-26T18:35:33.764Z,1.63
2019-04-26T18:38:03.724Z,1.50
2019-04-26T18:40:42.069Z,1.77
2019-04-26T18:43:03.398Z,1.30
2019-04-26T18:45:32.210Z,1.70
2019-04-26T18:48:01.955Z,1.60
2019-04-26T18:50:32.853Z,1.50
2019-04-26T18:53:19.690Z,2.30
2019-04-26T18:55:49.003Z,1.77
2019-04-26T18:58:17.636Z,1.77
2019-04-26T19:00:46.458Z,1.83
2019-04-26T19:03:16.023Z,1.63
2019-04-26T19:05:44.819Z,1.97
2019-04-26T19:08:14.967Z,2.10
2019-04-26T19:10:43.787Z,1.73
2019-04-26T19:13:37.800Z,1.77
2019-04-26T19:16:24.597Z,1.70
2019-04-26T19:18:59.930Z,1.57
2019-04-26T19:21:45.702Z,1.87
2019-04-26T19:24:19.782Z,2.10
2019-04-26T19:26:49.583Z,1.90
2019-04-26T19:29:18.203Z,1.93
2019-04-26T19:31:45.554Z,1.90
2019-04-26T19:34:14.207Z,2.00
2019-04-26T19:36:42.770Z,2.43
2019-04-26T19:39:12.018Z,2.10
2019-04-26T19:41:42.017Z,2.50
2019-04-26T19:44:14.607Z,2.70
2019-04-26T19:47:09.902Z,2.50
2019-04-26T19:49:54.104Z,2.83
2019-04-26T19:52:45.047Z,2.20
2019-04-26T19:55:47.318Z,2.80
2019-04-26T19:58:20.017Z,2.53
2019-04-26T20:00:46.882Z,3.07
2019-04-26T20:03:16.851Z,3.20
2019-04-26T20:05:45.792Z,3.00
2019-04-26T20:08:14.346Z,3.37
2019-04-26T20:10:45.430Z,2.90
2019-04-26T20:13:16.211Z,2.90
2019-04-26T20:15:43.567Z,3.20
2019-04-26T20:18:12.372Z,3.57
2019-04-26T20:20:41.425Z,3.60
2019-04-26T20:23:12.251Z,4.20
2019-04-26T20:25:40.693Z,3.47
2019-04-26T20:28:09.270Z,3.60
2019-04-26T20:31:08.538Z,3.83
2019-04-26T20:33:36.622Z,3.67
2019-04-26T20:36:05.358Z,3.33
2019-04-26T20:38:42.690Z,3.70
2019-04-26T20:41:04.460Z,3.50
2019-04-26T20:43:36.843Z,3.80
2019-04-26T20:46:14.029Z,3.67
2019-04-26T20:48:35.090Z,3.63
2019-04-26T20:51:06.492Z,3.77
2019-04-26T20:53:40.003Z,3.70
2019-04-26T20:56:09.888Z,4.13
2019-04-26T20:58:37.476Z,3.97
2019-04-26T21:01:12.440Z,3.97
2019-04-26T21:03:41.937Z,4.40
2019-04-26T21:06:11.337Z,4.23
2019-04-26T21:08:42.098Z,4.60
2019-04-26T21:11:11.504Z,4.17
2019-04-26T21:13:41.507Z,4.00
2019-04-26T21:16:15.044Z,4.33
2019-04-26T21:18:44.137Z,3.90
2019-04-26T21:21:14.246Z,4.10
2019-04-26T21:23:43.992Z,4.73
2019-04-26T21:26:34.960Z,4.13
2019-04-26T21:29:13.367Z,4.20
2019-04-26T21:32:01.510Z,3.90
2019-04-26T21:34:34.465Z,4.00
2019-04-26T21:37:24.904Z,3.97
2019-04-26T21:40:12.190Z,3.60
2019-04-26T21:42:43.321Z,4.17
2019-04-26T21:45:11.446Z,4.57
2019-04-26T21:47:40.041Z,4.33
2019-04-26T21:50:08.615Z,4.60
2019-04-26T21:52:37.172Z,4.57
2019-04-26T21:55:06.582Z,5.30
2019-04-26T21:57:35.818Z,4.80
2019-04-26T22:00:06.901Z,4.53
2019-04-26T22:07:53.509Z,4.80
2019-04-26T22:10:29.330Z,4.90
2019-04-26T22:13:01.512Z,5.60
2019-04-26T22:15:50.466Z,4.90
2019-04-26T22:18:24.262Z,5.17
2019-04-26T22:20:59.654Z,4.50
2019-04-26T22:23:37.406Z,4.73
2019-04-26T22:26:08.627Z,5.33
2019-04-26T22:28:37.623Z,4.60
2019-04-26T22:31:08.552Z,5.23
2019-04-26T22:33:36.753Z,5.00
2019-04-26T22:36:05.658Z,5.03
2019-04-26T22:38:34.228Z,5.40
2019-04-26T22:41:03.195Z,5.57
2019-04-26T22:44:03.864Z,4.93
2019-04-26T22:46:58.841Z,5.20
2019-04-26T22:49:25.249Z,5.23
2019-04-26T22:51:53.810Z,4.70
2019-04-26T22:54:23.081Z,5.10
2019-04-26T22:56:53.820Z,5.30
2019-04-26T22:59:23.003Z,5.33
2019-04-26T23:01:53.441Z,4.90
2019-04-26T23:04:26.257Z,5.30
2019-04-26T23:06:54.245Z,5.07
2019-04-26T23:09:23.346Z,5.03
2019-04-26T23:11:58.702Z,4.80
2019-04-26T23:14:55.217Z,5.00
2019-04-26T23:17:49.282Z,5.13
2019-04-26T23:20:29.148Z,5.23
2019-04-26T23:23:00.559Z,5.30
2019-04-26T23:25:31.223Z,5.40
2019-04-26T23:27:59.242Z,5.87
2019-04-26T23:30:31.662Z,6.40
2019-04-26T23:32:58.257Z,6.07
2019-04-26T23:35:26.846Z,5.93
2019-04-26T23:37:56.537Z,5.90
2019-04-26T23:40:28.946Z,5.43
2019-04-26T23:42:56.101Z,5.33
2019-04-26T23:45:24.667Z,5.67
2019-04-26T23:47:53.277Z,6.07
2019-04-26T23:50:25.566Z,5.47
2019-04-26T23:52:53.054Z,5.87
2019-04-26T23:55:23.527Z,6.17
2019-04-26T23:57:53.461Z,6.03
